Airport ID:KN38
Update Time (UTC):23/01/2020 03:16
Wind Speed (Knots):8
Wind Direction (Magnetic):210
Temperature (°C):-5
Dew Point (°C):-12
Humidity (%):59
Altimeter (inHg):30.3
Density Altitude (Feet):
Visibility (Miles):10+
Clouds (Hundreds of feet):CLR
Present Weather:
METAR:METAR KN38 230315Z AUTO 20008KT 10SM CLR M05/M12 A3030 RMK AO2

The data displayed is for advisory purposes only and is not to be used for flight planning or operations.

This page is not automatically refreshed. Reload the page to see current data.